Flight Track Log - Related Links

Times and Time Zones

All times are in EDT time to prevent confusion due to time zone crossing. See the AAL1554 flight status page for this flight to view local times or setup timezone preferences in your user account.

Time Position Orientation Groundspeed Altitude Reporting Facility
EDT Latitude Longitude Course Direction KTS MPH feet Rate Location/Type
Thu 04:28:47 PM 33.6333 -117.8833 90° East 175 201 1,900  Level Southern California TRACON
Thu 04:29:55 PM 33.5708 -117.8950 189° South 230 265 3,800 2,061 Climbing Los Angeles Center
Thu 04:30:00 PM 33.4843 -117.6540 54° Northeast  Level FlightAware Approximate
Thu 04:30:58 PM 33.5378 -117.8219 118° Southeast 282 325 6,400  Level Los Angeles Center
Thu 04:31:00 PM 33.5430 -117.5299 66° East  Level FlightAware Approximate
Thu 04:32:00 PM 33.5833 -117.3963 90° East  Level FlightAware Approximate
Thu 04:32:00 PM 33.5539 -117.7039 81° East 300 345 9,900  Level Los Angeles Center
Thu 04:33:00 PM 33.5834 -117.2528 90° East  Level FlightAware Approximate
Thu 04:33:02 PM 33.5689 -117.5936 81° East 332 382 11,100  Level Los Angeles Center
Thu 04:34:04 PM 33.5844 -117.4692 81° East 372 428 13,700 2,081 Climbing Los Angeles Center
Thu 04:35:06 PM 33.5889 -117.3381 88° East 392 451 15,400 1,887 Climbing Los Angeles Center
Thu 04:36:08 PM 33.5928 -117.2044 88° East 403 464 17,600 1,790 Climbing Los Angeles Center
Thu 04:37:10 PM 33.5994 -117.0356 87° East 421 484 19,100 1,104 Climbing Los Angeles Center
Thu 04:38:13 PM 33.5881 -116.9144 96° East 429 494 19,900 1,200 Climbing Los Angeles Center
Thu 04:39:15 PM 33.5767 -116.7422 94° East 432 497 21,600 1,694 Climbing Los Angeles Center
Thu 04:40:17 PM 33.5661 -116.5969 95° East 437 503 23,400 1,645 Climbing Los Angeles Center
Thu 04:41:19 PM 33.5625 -116.4425 92° East 461 531 25,000 1,516 Climbing Los Angeles Center
Thu 04:43:23 PM 33.6025 -116.1242 81° East 486 559 28,100 1,355 Climbing Los Angeles Center
Thu 04:44:25 PM 33.6214 -115.9594 82° East 496 571 29,200 1,392 Climbing Los Angeles Center
Thu 04:45:28 PM 33.6464 -115.7606 81° East 502 578 31,000 1,632 Climbing Los Angeles Center
Thu 04:46:30 PM 33.6656 -115.5936 82° East 502 578 32,600 1,500 Climbing Los Angeles Center
Thu 04:47:32 PM 33.6844 -115.4300 82° East 497 572 34,100 1,355 Climbing Los Angeles Center
Thu 04:48:34 PM 33.7028 -115.2681 82° East 491 565 35,400 1,016 Climbing Los Angeles Center
Thu 04:49:36 PM 33.7217 -115.1053 82° East 493 567 36,200 726 Climbing Los Angeles Center
Thu 04:50:38 PM 33.7408 -114.9408 82° East 496 571 36,900 353 Climbing Los Angeles Center
Thu 04:51:52 PM 33.7644 -114.7442 82° East 500 575 37,000  Climbing Los Angeles Center
Thu 04:53:07 PM 33.7850 -114.5486 83° East 495 570 36,900 -44 Descending Los Angeles Center
Thu 04:54:09 PM 33.8042 -114.3539 83° East 492 566 36,900  Level Los Angeles Center
Thu 04:55:11 PM 33.8214 -114.1931 83° East 488 562 36,900 54 Level Los Angeles Center
Thu 04:56:01 PM 33.8400 -114.0497 81° East 484 557 37,000 54 Climbing Albuquerque Center
Thu 04:57:03 PM 33.8547 -113.8903 84° East 483 556 37,000  Level Albuquerque Center
Thu 04:58:05 PM 33.8708 -113.7300 83° East 483 556 37,000  Level Albuquerque Center
Thu 04:59:07 PM 33.8872 -113.5706 83° East 482 555 37,000  Level Albuquerque Center
Thu 05:00:09 PM 33.9033 -113.4103 83° East 483 556 37,000  Level Albuquerque Center
Thu 05:01:10 PM 33.9228 -113.2186 83° East 482 555 37,000  Level Albuquerque Center
Thu 05:02:12 PM 33.9375 -113.0592 84° East 480 552 37,000  Level Albuquerque Center
Thu 05:03:14 PM 33.9522 -112.8992 84° East 481 554 37,000  Level Albuquerque Center
Thu 05:05:17 PM 33.9828 -112.5794 83° East 481 554 37,000  Level Albuquerque Center
Thu 05:06:19 PM 33.9975 -112.4194 84° East 481 554 37,000  Level Albuquerque Center
Thu 05:07:21 PM 34.0122 -112.2606 84° East 478 550 37,000  Level Albuquerque Center
Thu 05:08:22 PM 34.0294 -112.0703 84° East 476 548 37,000  Level Albuquerque Center
Thu 05:09:24 PM 34.0436 -111.9083 84° East 475 547 37,000  Level Albuquerque Center
Thu 05:10:26 PM 34.0564 -111.7517 84° East 472 543 37,000  Level Albuquerque Center
Thu 05:11:28 PM 34.0708 -111.5889 84° East 468 539 37,000  Level Albuquerque Center
Thu 05:12:29 PM 34.0836 -111.4347 84° East 463 533 37,000  Level Albuquerque Center
Thu 05:13:31 PM 34.0967 -111.2808 84° East 461 531 37,000  Level Albuquerque Center
Thu 05:14:33 PM 34.1092 -111.1267 84° East 463 533 37,000  Level Albuquerque Center
Thu 05:15:34 PM 34.1211 -110.9744 85° East 458 527 37,000  Level Albuquerque Center
Thu 05:16:36 PM 34.1339 -110.8206 84° East 460 529 37,000  Level Albuquerque Center
Thu 05:17:38 PM 34.1447 -110.6642 85° East 461 531 37,000  Level Albuquerque Center
Thu 05:18:40 PM 34.1567 -110.5114 85° East 460 529 37,000  Level Albuquerque Center
Thu 05:19:41 PM 34.1700 -110.3278 85° East 461 531 37,000  Level Albuquerque Center
Thu 05:20:43 PM 34.1817 -110.1739 85° East 462 532 37,000  Level Albuquerque Center
Thu 05:21:45 PM 34.1942 -110.0086 85° East 464 534 37,000  Level Albuquerque Center
Thu 05:22:47 PM 34.2050 -109.8569 85° East 471 542 37,000  Level Albuquerque Center
Thu 05:23:49 PM 34.2175 -109.6803 85° East 473 544 37,000  Level Albuquerque Center
Thu 05:24:50 PM 34.2275 -109.5264 85° East 477 549 37,000  Level Albuquerque Center
Thu 05:25:52 PM 34.2392 -109.3578 85° East 473 544 37,000  Level Albuquerque Center
Thu 05:26:54 PM 34.2497 -109.1997 85° East 472 543 37,000  Level Albuquerque Center
Thu 05:27:56 PM 34.2594 -109.0436 86° East 471 542 37,000 145 Level Albuquerque Center
Thu 05:28:58 PM 34.2694 -108.8875 86° East 469 540 37,300 581 Climbing Albuquerque Center
Thu 05:30:00 PM 34.2794 -108.7319 86° East 468 539 38,200 774 Climbing Albuquerque Center
Thu 05:31:02 PM 34.2903 -108.5464 86° East 466 536 38,900 390 Climbing Albuquerque Center
Thu 05:32:03 PM 34.2989 -108.3894 86° East 468 539 39,000 49 Climbing Albuquerque Center
Thu 05:33:05 PM 34.3078 -108.2481 86° East 463 533 39,000  Level Albuquerque Center
Thu 05:34:07 PM 34.3161 -108.0947 86° East 459 528 39,000  Level Albuquerque Center
Thu 05:35:09 PM 34.3261 -107.9103 86° East 459 528 39,000  Level Albuquerque Center
Thu 05:36:11 PM 34.3344 -107.7564 86° East 460 529 39,000  Level Albuquerque Center
Thu 05:37:13 PM 34.3419 -107.6025 87° East 461 531 39,000  Level Albuquerque Center
Thu 05:38:15 PM 34.3503 -107.4472 86° East 462 532 39,000  Level Albuquerque Center
Thu 05:39:16 PM 34.3569 -107.2911 87° East 465 535 39,000  Level Albuquerque Center
Thu 05:40:18 PM 34.3644 -107.1367 87° East 464 534 39,000  Level Albuquerque Center
Thu 05:41:20 PM 34.3725 -106.9486 87° East 469 540 39,000  Level Albuquerque Center
Thu 05:42:22 PM 34.3800 -106.7919 87° East 469 540 39,000  Level Albuquerque Center
Thu 05:43:24 PM 34.3864 -106.6350 87° East 469 540 39,000  Level Albuquerque Center
Thu 05:44:26 PM 34.3933 -106.4778 87° East 470 541 39,000  Level Albuquerque Center
Thu 05:45:28 PM 34.4006 -106.3197 87° East 472 543 39,000  Level Albuquerque Center
Thu 05:46:29 PM 34.4069 -106.1344 88° East 463 533 39,000  Level Albuquerque Center
Thu 05:47:31 PM 34.4136 -105.9764 87° East 465 535 39,000  Level Albuquerque Center
Thu 05:48:33 PM 34.4186 -105.8192 88° East 464 534 39,000  Level Albuquerque Center
Thu 05:49:35 PM 34.4239 -105.6631 88° East 463 533 39,000  Level Albuquerque Center
Thu 05:50:37 PM 34.4303 -105.5061 87° East 464 534 39,000  Level Albuquerque Center
Thu 05:51:39 PM 34.4350 -105.3486 88° East 464 534 39,000  Level Albuquerque Center
Thu 05:52:41 PM 34.4408 -105.1919 87° East 464 534 39,000  Level Albuquerque Center
Thu 05:53:43 PM 34.4467 -105.0353 87° East 464 534 39,000  Level Albuquerque Center
Thu 05:54:44 PM 34.4522 -104.8531 88° East 462 532 39,000  Level Albuquerque Center
Thu 05:55:46 PM 34.4567 -104.6939 88° East 467 537 39,000  Level Albuquerque Center
Thu 05:56:48 PM 34.4608 -104.5331 88° East 472 543 39,000  Level Albuquerque Center
Thu 05:57:50 PM 34.4653 -104.3722 88° East 475 547 39,000  Level Albuquerque Center
Thu 05:58:52 PM 34.4692 -104.2111 88° East 476 548 39,000  Level Albuquerque Center
Thu 05:59:54 PM 34.4728 -104.0494 88° East 478 550 39,000  Level Albuquerque Center
Thu 06:00:55 PM 34.4772 -103.8611 88° East 478 550 39,000  Level Albuquerque Center
Thu 06:01:57 PM 34.4817 -103.6994 88° East 478 550 39,000  Level Albuquerque Center
Thu 06:02:59 PM 34.4844 -103.5392 89° East 476 548 39,000  Level Albuquerque Center
Thu 06:04:01 PM 34.4869 -103.3792 89° East 474 545 39,000  Level Albuquerque Center
Thu 06:05:03 PM 34.4889 -103.2222 89° East 468 539 39,000  Level Albuquerque Center
Thu 06:06:05 PM 34.4914 -103.0619 89° East 471 542 39,000  Level Albuquerque Center
Thu 06:07:07 PM 34.4933 -102.8953 89° East 470 541 39,000  Level Albuquerque Center
Thu 06:08:09 PM 34.4850 -102.7378 94° East 472 543 39,000  Level Albuquerque Center
Thu 06:09:10 PM 34.4689 -102.5831 97° East 467 537 39,000  Level Albuquerque Center
Thu 06:10:12 PM 34.4528 -102.4269 97° East 468 539 39,000  Level Albuquerque Center
Thu 06:11:14 PM 34.4325 -102.2417 98° East 467 537 39,000  Level Albuquerque Center
Thu 06:12:16 PM 34.4161 -102.0867 97° East 466 536 39,000  Level Albuquerque Center
Thu 06:13:18 PM 34.3992 -101.9342 98° East 464 534 39,000  Level Albuquerque Center
Thu 06:14:19 PM 34.3831 -101.7817 97° East 461 531 39,000  Level Albuquerque Center
Thu 06:15:21 PM 34.3650 -101.6278 98° East 463 533 39,000  Level Albuquerque Center
Thu 06:16:23 PM 34.3453 -101.4464 97° East 459 528 39,000  Level Albuquerque Center
Thu 06:17:25 PM 34.3292 -101.2967 97° East 455 524 39,000  Level Albuquerque Center
Thu 06:18:26 PM 34.3117 -101.1447 98° East 457 526 39,000  Level Fort Worth Center
Thu 06:19:26 PM 34.2889 -100.9928 100° East 457 526 39,000  Level Fort Worth Center
Thu 06:20:26 PM 34.2575 -100.8458 104° East 452 520 39,000  Level Fort Worth Center
Thu 06:21:26 PM 34.2261 -100.6989 104° East 452 520 39,000  Level Fort Worth Center
Thu 06:22:26 PM 34.1922 -100.5519 106° East 452 520 39,000  Level Fort Worth Center
Thu 06:23:26 PM 34.1583 -100.4053 106° East 457 526 39,000  Level Fort Worth Center
Thu 06:24:26 PM 34.1264 -100.2586 105° East 457 526 39,000  Level Fort Worth Center
Thu 06:25:26 PM 34.0900 -100.1119 107° East 457 526 39,000  Level Fort Worth Center
Thu 06:26:26 PM 34.0575 -99.9681 105° East 457 526 39,000  Level Fort Worth Center
Thu 06:27:26 PM 34.0250 -99.8192 105° East 457 526 39,000  Level Fort Worth Center
Thu 06:28:26 PM 33.9881 -99.6731 107° East 462 532 39,000  Level Fort Worth Center
Thu 06:29:26 PM 33.9608 -99.5544 105° East 462 532 39,000 -100 Level Fort Worth Center
Thu 06:30:26 PM 33.9239 -99.3983 106° East 452 520 38,800 -1,300 Descending Fort Worth Center
Thu 06:31:26 PM 33.8906 -99.2575 106° East 446 513 36,400 -2,650 Descending Fort Worth Center
Thu 06:32:26 PM 33.8550 -99.1117 106° East 445 512 33,500 -2,750 Descending Fort Worth Center
Thu 06:33:26 PM 33.8172 -98.9711 108° East 445 512 30,900 -2,300 Descending Fort Worth Center
Thu 06:34:26 PM 33.7750 -98.8328 110° East 437 503 28,900 -2,000 Descending Fort Worth Center
Thu 06:35:26 PM 33.7325 -98.6972 111° Southeast 437 503 26,900 -2,000 Descending Fort Worth Center
Thu 06:36:26 PM 33.6900 -98.5692 112° Southeast 423 487 24,900 -2,150 Descending Fort Worth Center
Thu 06:37:26 PM 33.6411 -98.4314 113° Southeast 410 472 22,600 -2,100 Descending Fort Worth Center
Thu 06:38:26 PM 33.6086 -98.3214 110° East 399 459 20,700 -1,900 Descending Fort Worth Center
Thu 06:39:26 PM 33.5697 -98.2039 112° Southeast 389 448 18,800 -2,067 Descending Fort Worth Center
Thu 06:40:25 PM 33.5267 -98.0789 112° Southeast 372 428 16,600 -2,000 Descending Fort Worth Center
Thu 06:41:26 PM 33.4939 -97.9789 111° Southeast 367 422 14,800 -1,934 Descending Fort Worth Center
Thu 06:42:26 PM 33.4547 -97.8592 111° Southeast 356 410 12,700 -1,750 Descending Fort Worth Center
Thu 06:43:26 PM 33.4236 -97.7669 112° Southeast 344 396 11,300 -1,210 Descending Fort Worth Center
Thu 06:44:25 PM 33.3883 -97.6647 112° Southeast 322 371 10,300 -1,200 Descending Fort Worth Center
Thu 06:45:26 PM 33.3406 -97.5925 128° Southeast 285 328 8,900 -1,450 Descending Fort Worth Center
Thu 06:46:25 PM 33.2906 -97.5353 136° Southeast 273 314 7,400 -1,500 Descending Fort Worth Center
Thu 06:47:26 PM 33.2550 -97.4458 115° Southeast 273 314 5,900 -1,190 Descending Fort Worth Center
Thu 06:48:26 PM 33.2300 -97.3711 112° Southeast 268 308 5,000 -450 Descending Fort Worth Center
Thu 06:49:26 PM 33.2050 -97.2819 109° East 263 303 5,000  Level Fort Worth Center
Thu 06:50:25 PM 33.1861 -97.2100 107° East 263 303 5,000 -400 Level Fort Worth Center
Thu 06:51:26 PM 33.1525 -97.1381 119° Southeast 234 269 4,200 -950 Descending Fort Worth Center
Thu 06:52:25 PM 33.1128 -97.0936 137° Southeast 222 255 3,100 -1,119 Descending Fort Worth Center

Login

Don't have an account? Register now (free) for customized features, flight alerts, and more!